Time;durP1;ratioP1;P1;durP2;ratioP2;P2;SDS_P1;SDS_P2;PMS_P1;PMS_P2;Temp;Humidity;BMP_temperature;BMP_pressure;BME280_temperature;BME280_humidity;BME280_pressure;Samples;Min_cycle;Max_cycle;Signal;HPM_P1;HPM_P2
2023/01/23 00:02:17;;;;;;;11.13;8.40;;;8.20;1.00;;;;;;5074304;28;20028;-62
2023/01/23 00:04:43;;;;;;;10.73;8.50;;;8.20;1.00;;;;;;5068014;28;20099;-62
2023/01/23 00:07:08;;;;;;;10.60;8.90;;;8.20;1.00;;;;;;5065490;28;20032;-62
2023/01/23 00:09:34;;;;;;;15.57;8.67;;;8.20;1.00;;;;;;5073902;28;20037;-62
2023/01/23 00:12:00;;;;;;;13.07;8.97;;;8.10;1.00;;;;;;5073474;28;20063;-62
2023/01/23 00:14:25;;;;;;;10.80;8.87;;;8.20;1.00;;;;;;5074718;28;20024;-62
2023/01/23 00:16:51;;;;;;;14.00;9.80;;;8.20;1.00;;;;;;5072645;28;20055;-62
2023/01/23 00:19:17;;;;;;;13.93;9.90;;;8.20;1.00;;;;;;5074058;28;20047;-62
2023/01/23 00:21:42;;;;;;;12.60;8.70;;;8.20;1.00;;;;;;5073019;28;20025;-62
2023/01/23 00:24:10;;;;;;;10.63;8.90;;;8.30;1.00;;;;;;5073303;28;20071;-62
2023/01/23 00:26:36;;;;;;;10.47;9.07;;;8.20;1.00;;;;;;5065275;28;20043;-62
2023/01/23 00:29:03;;;;;;;13.17;9.67;;;8.30;1.00;;;;;;5074223;28;20536;-62
2023/01/23 00:31:32;;;;;;;12.97;8.90;;;8.30;1.00;;;;;;5072103;28;20081;-62
2023/01/23 00:34:00;;;;;;;11.00;9.60;;;8.20;1.00;;;;;;5073017;28;20116;-62
2023/01/23 00:36:44;;;;;;;12.90;9.63;;;8.30;1.00;;;;;;5073057;28;20069;-62
2023/01/23 00:39:18;;;;;;;12.23;9.97;;;8.30;1.00;;;;;;5064875;28;20335;-62
2023/01/23 00:41:45;;;;;;;13.17;9.57;;;8.20;1.00;;;;;;5071304;28;20036;-62
2023/01/23 00:44:11;;;;;;;12.67;8.93;;;8.10;1.00;;;;;;5074217;28;20055;-60
2023/01/23 00:46:37;;;;;;;13.03;10.10;;;8.20;1.00;;;;;;5072746;28;20040;-60
2023/01/23 00:49:03;;;;;;;12.93;9.30;;;8.10;1.00;;;;;;5072703;28;20462;-60
2023/01/23 00:51:29;;;;;;;13.13;9.73;;;8.10;1.00;;;;;;5065050;28;20126;-61
2023/01/23 00:53:55;;;;;;;14.87;9.77;;;8.20;1.00;;;;;;5074132;28;20107;-60
2023/01/23 00:56:21;;;;;;;12.93;9.57;;;8.10;1.00;;;;;;5063236;28;20052;-61
2023/01/23 00:58:47;;;;;;;10.63;9.33;;;8.20;1.00;;;;;;5074406;28;20021;-61
2023/01/23 01:01:14;;;;;;;13.47;10.43;;;8.20;1.00;;;;;;5067319;28;20348;-61
2023/01/23 01:03:39;;;;;;;13.70;10.77;;;8.20;1.00;;;;;;5073234;28;20016;-61
2023/01/23 01:06:05;;;;;;;12.93;10.13;;;8.20;1.00;;;;;;5068138;28;20102;-61
2023/01/23 01:08:31;;;;;;;12.63;10.27;;;8.20;1.00;;;;;;5073925;28;20021;-61
2023/01/23 01:10:57;;;;;;;13.20;9.53;;;8.20;1.00;;;;;;5072518;28;20024;-61
2023/01/23 01:13:23;;;;;;;12.63;11.00;;;8.20;1.00;;;;;;5073682;28;20077;-61
2023/01/23 01:15:51;;;;;;;12.63;10.57;;;8.30;1.00;;;;;;5071868;28;20032;-61
2023/01/23 01:18:17;;;;;;;13.37;10.20;;;8.20;1.00;;;;;;5073725;28;20025;-61
2023/01/23 01:20:43;;;;;;;12.97;10.77;;;7.90;1.00;;;;;;5067166;28;20125;-61
2023/01/23 01:23:09;;;;;;;13.93;11.73;;;8.10;1.00;;;;;;5064547;28;20198;-61
2023/01/23 01:25:35;;;;;;;12.83;10.53;;;8.00;1.00;;;;;;5072118;28;20116;-61
2023/01/23 01:28:01;;;;;;;16.90;11.23;;;8.00;1.00;;;;;;5073605;28;20121;-61
2023/01/23 01:30:26;;;;;;;14.80;11.77;;;8.10;1.00;;;;;;5070488;28;20085;-61
2023/01/23 01:32:53;;;;;;;13.27;10.47;;;8.10;1.00;;;;;;5061333;28;20502;-61
2023/01/23 01:35:20;;;;;;;12.63;10.17;;;8.10;1.00;;;;;;5071257;28;20415;-61
2023/01/23 01:37:46;;;;;;;14.13;11.33;;;8.10;1.00;;;;;;5073217;28;20040;-61
2023/01/23 01:40:15;;;;;;;20.83;11.73;;;8.20;1.00;;;;;;5072486;28;20021;-61
2023/01/23 01:42:43;;;;;;;15.50;11.27;;;8.10;1.00;;;;;;5073176;28;20027;-62
2023/01/23 01:45:46;;;;;;;16.10;12.13;;;8.10;1.00;;;;;;5072891;28;20070;-61
2023/01/23 01:48:13;;;;;;;14.93;11.73;;;8.10;1.00;;;;;;5060554;28;20039;-62
2023/01/23 01:50:39;;;;;;;16.00;12.17;;;8.10;1.00;;;;;;5072428;28;20078;-62
2023/01/23 01:53:05;;;;;;;15.83;12.77;;;8.10;1.00;;;;;;5072489;28;20036;-62
2023/01/23 01:55:31;;;;;;;16.70;12.50;;;7.70;1.00;;;;;;5073224;28;20066;-62
2023/01/23 01:57:57;;;;;;;15.10;12.40;;;7.80;1.00;;;;;;5073012;28;20039;-62
2023/01/23 02:00:23;;;;;;;13.47;11.57;;;8.00;1.00;;;;;;5070864;28;20033;-62
2023/01/23 02:02:59;;;;;;;15.67;12.40;;;7.90;1.00;;;;;;5068027;28;20039;-61
2023/01/23 02:05:35;;;;;;;17.17;13.43;;;7.70;1.00;;;;;;5070094;28;20052;-61
2023/01/23 02:08:08;;;;;;;16.53;13.03;;;7.70;1.00;;;;;;5068935;28;20040;-61
2023/01/23 02:10:35;;;;;;;18.43;14.13;;;7.80;1.00;;;;;;5069953;28;20020;-61
2023/01/23 02:13:20;;;;;;;15.17;12.43;;;7.80;1.00;;;;;;5068640;28;20100;-61
2023/01/23 02:15:47;;;;;;;16.90;13.90;;;7.50;1.00;;;;;;5069704;28;21457;-61
2023/01/23 02:18:13;;;;;;;15.20;12.97;;;7.80;1.00;;;;;;5072493;28;20174;-61
2023/01/23 02:20:39;;;;;;;16.23;13.30;;;7.80;1.00;;;;;;5070311;28;20025;-61
2023/01/23 02:23:28;;;;;;;20.77;13.30;;;7.90;1.00;;;;;;5072468;28;20032;-62
2023/01/23 02:26:08;;;;;;;18.03;13.63;;;7.90;1.00;;;;;;5059769;28;20109;-62
2023/01/23 02:28:59;;;;;;;15.23;12.27;;;7.80;1.00;;;;;;5072512;28;20059;-61
2023/01/23 02:31:25;;;;;;;16.27;13.50;;;7.80;1.00;;;;;;5067385;28;20087;-62
2023/01/23 02:33:53;;;;;;;15.20;12.40;;;7.90;1.00;;;;;;5072145;28;20393;-61
2023/01/23 02:36:30;;;;;;;15.27;12.60;;;7.90;1.00;;;;;;5070881;28;20029;-62
2023/01/23 02:39:14;;;;;;;17.87;13.13;;;7.90;1.00;;;;;;5072047;28;20032;-61
2023/01/23 02:41:46;;;;;;;20.60;13.27;;;7.90;1.00;;;;;;5063841;28;20416;-62
2023/01/23 02:44:27;;;;;;;16.57;13.23;;;7.90;1.00;;;;;;5072572;28;20445;-62
2023/01/23 02:46:59;;;;;;;18.23;14.20;;;8.00;1.00;;;;;;5070421;28;20040;-61
2023/01/23 02:49:25;;;;;;;15.53;12.57;;;7.90;1.00;;;;;;5072335;28;20033;-61
2023/01/23 02:51:52;;;;;;;17.33;13.47;;;7.90;1.00;;;;;;5067886;28;20039;-61
2023/01/23 02:54:18;;;;;;;16.50;12.87;;;7.90;1.00;;;;;;5071349;28;20430;-61
2023/01/23 02:56:44;;;;;;;16.50;12.50;;;8.00;1.00;;;;;;5071718;28;20444;-61
2023/01/23 03:01:54;;;;;;;17.30;13.67;;;7.90;1.00;;;;;;5067895;28;20047;-60
2023/01/23 03:04:20;;;;;;;17.23;13.30;;;7.90;1.00;;;;;;5069827;28;20020;-59
2023/01/23 03:06:45;;;;;;;16.77;13.37;;;7.80;1.00;;;;;;5070379;28;20041;-61
2023/01/23 03:09:14;;;;;;;16.77;12.37;;;7.90;1.00;;;;;;5072074;28;20070;-61
2023/01/23 03:11:42;;;;;;;14.73;12.73;;;8.00;1.00;;;;;;5069868;28;20063;-61
2023/01/23 03:14:10;;;;;;;17.37;11.73;;;7.90;1.00;;;;;;5059030;28;20081;-61
2023/01/23 03:16:36;;;;;;;16.30;11.13;;;8.00;1.00;;;;;;5069970;28;20024;-61
2023/01/23 03:19:04;;;;;;;13.37;10.60;;;7.80;1.00;;;;;;5070064;28;20032;-61
2023/01/23 03:21:36;;;;;;;14.33;12.13;;;7.80;1.00;;;;;;5055806;28;20033;-61
2023/01/23 03:24:09;;;;;;;15.00;11.50;;;7.80;1.00;;;;;;5071771;28;20050;-61
2023/01/23 03:26:37;;;;;;;15.33;11.73;;;7.90;1.00;;;;;;5071643;28;20386;-64
2023/01/23 03:31:47;;;;;;;14.23;11.55;;;7.80;1.00;;;;;;5059158;28;20060;-61
2023/01/23 03:34:13;;;;;;;14.67;11.10;;;7.90;1.00;;;;;;5071686;28;20017;-60
2023/01/23 03:36:40;;;;;;;14.17;11.33;;;7.80;1.00;;;;;;5060057;28;20091;-60
2023/01/23 03:41:51;;;;;;;;;;;7.80;1.00;;;;;;5071341;28;20074;-60
2023/01/23 03:44:17;;;;;;;14.47;11.70;;;7.80;1.00;;;;;;5070916;28;19909;-61
2023/01/23 03:46:44;;;;;;;16.47;11.13;;;7.90;1.00;;;;;;5070696;28;20066;-61
2023/01/23 03:49:10;;;;;;;14.80;11.73;;;7.80;1.00;;;;;;5071498;28;20199;-60
2023/01/23 03:51:35;;;;;;;14.40;12.37;;;7.70;1.00;;;;;;5066665;28;20111;-60
2023/01/23 03:54:01;;;;;;;15.60;12.53;;;7.80;1.00;;;;;;5067064;28;20103;-60
2023/01/23 03:56:27;;;;;;;18.83;12.77;;;7.60;1.00;;;;;;5071057;28;20040;-60
2023/01/23 03:58:52;;;;;;;15.97;12.13;;;7.40;1.00;;;;;;5070258;28;20500;-61
2023/01/23 04:01:18;;;;;;;15.83;13.17;;;7.30;1.00;;;;;;5057662;28;20032;-60
2023/01/23 04:03:43;;;;;;;16.67;13.23;;;7.30;1.00;;;;;;5063425;28;20094;-60
2023/01/23 04:06:09;;;;;;;18.77;13.47;;;7.40;1.00;;;;;;5069291;28;20375;-61
2023/01/23 04:08:35;;;;;;;17.50;12.83;;;7.50;1.00;;;;;;5061316;28;20029;-62
2023/01/23 04:11:02;;;;;;;14.47;12.77;;;7.20;1.00;;;;;;5067021;28;20047;-62
2023/01/23 04:13:29;;;;;;;17.30;13.43;;;7.00;1.00;;;;;;5060489;28;20108;-61
2023/01/23 04:15:54;;;;;;;16.43;13.53;;;7.10;1.00;;;;;;5070790;28;20028;-60
2023/01/23 04:18:20;;;;;;;16.60;13.87;;;6.90;1.00;;;;;;5069505;28;20025;-61
2023/01/23 04:20:46;;;;;;;16.87;13.37;;;7.20;1.00;;;;;;5070585;28;20029;-61
2023/01/23 04:23:12;;;;;;;17.57;13.70;;;6.80;1.00;;;;;;5064822;28;20031;-62
2023/01/23 04:25:37;;;;;;;16.90;14.00;;;6.60;1.00;;;;;;5070874;28;20021;-61
2023/01/23 04:28:03;;;;;;;19.67;13.80;;;6.70;1.00;;;;;;5068785;28;20035;-61
2023/01/23 04:30:29;;;;;;;16.10;12.67;;;6.90;1.00;;;;;;5069289;28;20085;-62
2023/01/23 04:32:54;;;;;;;18.07;14.27;;;6.70;1.00;;;;;;5062952;28;20036;-61
2023/01/23 04:35:20;;;;;;;17.63;14.47;;;6.90;1.00;;;;;;5072839;28;20028;-62
2023/01/23 04:37:45;;;;;;;16.43;12.87;;;7.10;1.00;;;;;;5072361;28;20032;-61
2023/01/23 04:40:12;;;;;;;15.43;13.03;;;7.10;1.00;;;;;;5074548;28;20031;-62
2023/01/23 04:42:37;;;;;;;16.73;12.93;;;6.80;1.00;;;;;;5072059;28;20036;-62
2023/01/23 04:45:03;;;;;;;16.03;13.20;;;6.90;1.00;;;;;;5073060;28;20402;-62
2023/01/23 04:47:29;;;;;;;17.20;13.60;;;6.90;1.00;;;;;;5074204;28;20037;-62
2023/01/23 04:49:54;;;;;;;16.00;13.23;;;7.00;1.00;;;;;;5074274;28;20043;-62
2023/01/23 04:52:20;;;;;;;16.93;12.90;;;6.60;1.00;;;;;;5070999;28;20025;-62
2023/01/23 04:54:45;;;;;;;19.73;12.50;;;6.60;1.00;;;;;;5068255;28;20031;-62
2023/01/23 04:57:11;;;;;;;18.33;12.07;;;6.70;1.00;;;;;;5074014;28;20103;-62
2023/01/23 04:59:36;;;;;;;17.03;12.00;;;6.90;1.00;;;;;;5073260;28;20367;-62
2023/01/23 05:02:02;;;;;;;17.37;12.77;;;6.90;1.00;;;;;;5073667;28;20036;-62
2023/01/23 05:04:28;;;;;;;13.87;11.30;;;6.70;1.00;;;;;;5064486;28;20394;-61
2023/01/23 05:06:53;;;;;;;16.03;12.10;;;7.10;1.00;;;;;;5070878;28;20435;-62
2023/01/23 05:09:19;;;;;;;16.43;12.03;;;7.00;1.00;;;;;;5073764;28;20081;-62
2023/01/23 05:11:44;;;;;;;14.27;11.97;;;7.00;1.00;;;;;;5069901;28;20025;-62
2023/01/23 05:14:11;;;;;;;15.40;11.73;;;7.10;1.00;;;;;;5069369;28;20031;-62
2023/01/23 05:16:36;;;;;;;17.77;11.33;;;6.90;1.00;;;;;;5071649;28;20107;-62
2023/01/23 05:19:02;;;;;;;15.57;12.30;;;6.90;1.00;;;;;;5072150;28;20540;-62
2023/01/23 05:21:28;;;;;;;16.47;12.50;;;7.00;1.00;;;;;;5070232;28;20031;-62
2023/01/23 05:23:53;;;;;;;15.80;11.37;;;6.90;1.00;;;;;;5072190;28;20108;-62
2023/01/23 05:26:19;;;;;;;17.83;11.27;;;6.90;1.00;;;;;;5068690;28;20029;-62
2023/01/23 05:28:45;;;;;;;14.67;11.23;;;7.00;1.00;;;;;;5071944;28;20046;-62
2023/01/23 05:31:12;;;;;;;13.23;10.80;;;7.00;1.00;;;;;;5072498;28;20565;-63
2023/01/23 05:33:39;;;;;;;15.33;10.77;;;6.90;1.00;;;;;;5070227;28;20381;-62
2023/01/23 05:36:05;;;;;;;14.17;10.43;;;6.70;1.00;;;;;;5064911;28;20032;-62
2023/01/23 05:38:31;;;;;;;15.57;11.63;;;7.00;1.00;;;;;;5073582;28;20027;-63
2023/01/23 05:40:56;;;;;;;15.60;11.17;;;7.00;1.00;;;;;;5071563;28;20133;-62
2023/01/23 05:43:22;;;;;;;16.03;10.60;;;7.10;1.00;;;;;;5072302;28;20077;-62
2023/01/23 05:45:48;;;;;;;14.37;10.87;;;7.00;1.00;;;;;;5071887;28;20028;-62
2023/01/23 05:48:13;;;;;;;13.20;10.20;;;7.00;1.00;;;;;;5073083;28;20107;-62
2023/01/23 05:50:40;;;;;;;15.83;11.00;;;7.10;1.00;;;;;;5061036;28;20071;-62
2023/01/23 05:53:05;;;;;;;13.60;10.70;;;7.10;1.00;;;;;;5073475;28;20474;-62
2023/01/23 05:55:31;;;;;;;13.93;10.57;;;6.90;1.00;;;;;;5053644;28;20020;-63
2023/01/23 05:57:56;;;;;;;17.57;11.20;;;7.00;1.00;;;;;;5073074;28;20458;-62
2023/01/23 06:00:22;;;;;;;20.90;11.13;;;6.90;1.00;;;;;;5068109;28;20367;-62
2023/01/23 06:02:48;;;;;;;14.20;10.70;;;6.70;1.00;;;;;;5070499;28;20100;-62
2023/01/23 06:05:13;;;;;;;13.70;9.30;;;6.90;1.00;;;;;;5071592;28;20489;-63
2023/01/23 06:07:39;;;;;;;15.40;10.03;;;6.90;1.00;;;;;;5072704;28;20036;-63
2023/01/23 06:10:06;;;;;;;13.67;9.43;;;7.00;1.00;;;;;;5072249;28;20039;-62
2023/01/23 06:12:31;;;;;;;13.10;9.37;;;7.00;1.00;;;;;;5072369;28;20478;-62
2023/01/23 06:14:57;;;;;;;11.03;9.10;;;7.10;1.00;;;;;;5072721;28;20025;-63
2023/01/23 06:17:23;;;;;;;16.07;9.30;;;7.00;1.00;;;;;;5072021;28;20397;-63
2023/01/23 06:19:48;;;;;;;11.10;9.03;;;7.00;1.00;;;;;;5071235;28;20040;-62
2023/01/23 06:22:14;;;;;;;14.73;8.97;;;7.10;1.00;;;;;;5072455;28;20060;-62
2023/01/23 06:24:39;;;;;;;14.23;9.07;;;7.10;1.00;;;;;;5072601;28;20017;-62
2023/01/23 06:27:07;;;;;;;13.10;9.47;;;7.20;1.00;;;;;;5072313;28;20043;-62
2023/01/23 06:29:34;;;;;;;13.23;9.23;;;7.20;1.00;;;;;;5071022;28;20096;-62
2023/01/23 06:31:59;;;;;;;11.57;8.83;;;7.20;1.00;;;;;;5071871;28;20111;-62
2023/01/23 06:34:37;;;;;;;12.77;9.67;;;7.10;1.00;;;;;;5072018;28;20075;-63
2023/01/23 06:37:03;;;;;;;12.70;9.30;;;7.00;1.00;;;;;;5071842;28;20020;-63
2023/01/23 06:39:29;;;;;;;12.50;9.13;;;6.90;1.00;;;;;;5071943;28;20025;-62
2023/01/23 06:41:55;;;;;;;13.20;10.00;;;7.00;1.00;;;;;;5072483;28;20032;-63
2023/01/23 06:44:22;;;;;;;13.57;9.40;;;6.90;1.00;;;;;;5072205;28;20119;-63
2023/01/23 06:46:47;;;;;;;13.77;9.07;;;6.90;1.00;;;;;;5069806;28;20037;-63
2023/01/23 06:49:13;;;;;;;12.53;8.60;;;6.80;1.00;;;;;;5070412;28;20037;-62
2023/01/23 06:51:39;;;;;;;15.63;9.47;;;6.70;1.00;;;;;;5072209;28;20048;-62
2023/01/23 06:54:04;;;;;;;13.03;9.83;;;6.80;1.00;;;;;;5071505;28;20029;-63
2023/01/23 06:56:30;;;;;;;12.20;9.23;;;6.70;1.00;;;;;;5071746;28;20020;-62
2023/01/23 06:58:55;;;;;;;15.07;9.07;;;6.60;1.00;;;;;;5072207;28;20456;-62
2023/01/23 07:01:21;;;;;;;12.33;8.83;;;6.50;1.00;;;;;;5066220;28;20028;-62
2023/01/23 07:03:47;;;;;;;13.67;8.83;;;6.50;1.00;;;;;;5071520;28;20024;-61
2023/01/23 07:06:14;;;;;;;12.97;8.87;;;6.60;1.00;;;;;;5070545;28;20179;-61
2023/01/23 07:08:41;;;;;;;9.83;8.43;;;6.80;1.00;;;;;;5071963;28;20036;-62
2023/01/23 07:11:07;;;;;;;11.33;7.60;;;6.90;1.00;;;;;;5064332;28;20035;-61
2023/01/23 07:13:33;;;;;;;11.63;7.70;;;7.00;1.00;;;;;;5070446;28;20386;-61
2023/01/23 07:15:59;;;;;;;11.13;7.90;;;7.00;1.00;;;;;;5069900;28;20021;-62
2023/01/23 07:18:27;;;;;;;11.20;7.63;;;7.00;1.00;;;;;;5070079;28;20028;-61
2023/01/23 07:20:53;;;;;;;10.67;7.67;;;7.00;1.00;;;;;;5069680;28;20490;-61
2023/01/23 07:23:19;;;;;;;10.97;6.80;;;7.10;1.00;;;;;;5067895;28;20494;-61
2023/01/23 07:25:44;;;;;;;8.30;6.70;;;7.20;1.00;;;;;;5071790;28;20086;-62
2023/01/23 07:28:10;;;;;;;9.03;6.23;;;7.20;1.00;;;;;;5071347;28;20072;-61
2023/01/23 07:30:36;;;;;;;11.60;7.57;;;7.20;1.00;;;;;;5070601;28;20097;-62
2023/01/23 07:33:02;;;;;;;10.33;7.00;;;7.30;1.00;;;;;;5065477;28;20029;-61
2023/01/23 07:35:27;;;;;;;9.30;6.73;;;7.30;1.00;;;;;;5068374;28;20363;-63
2023/01/23 07:37:53;;;;;;;12.80;7.67;;;7.40;1.00;;;;;;5064902;28;20351;-62
2023/01/23 07:40:19;;;;;;;10.93;7.33;;;7.40;1.00;;;;;;5058864;28;20486;-62
2023/01/23 07:42:45;;;;;;;11.20;7.63;;;7.40;1.00;;;;;;5070371;28;20051;-62
2023/01/23 07:45:11;;;;;;;12.53;7.80;;;7.40;1.00;;;;;;5071225;28;20382;-62
2023/01/23 07:47:38;;;;;;;11.87;8.13;;;7.40;1.00;;;;;;5060479;28;20032;-62
2023/01/23 07:50:09;;;;;;;10.17;7.70;;;7.40;1.00;;;;;;5071482;28;20048;-62
2023/01/23 07:52:35;;;;;;;10.53;8.30;;;7.40;1.00;;;;;;5071467;28;20070;-62
2023/01/23 07:55:01;;;;;;;12.87;7.90;;;7.50;1.00;;;;;;5068388;28;20025;-62
2023/01/23 07:57:27;;;;;;;11.77;8.17;;;7.40;1.00;;;;;;5069975;28;20019;-63
2023/01/23 07:59:53;;;;;;;12.00;8.50;;;7.40;1.00;;;;;;5070741;28;20020;-63
2023/01/23 08:02:18;;;;;;;15.33;8.37;;;7.40;1.00;;;;;;5071444;28;20478;-62
2023/01/23 08:04:44;;;;;;;13.47;8.97;;;7.30;1.00;;;;;;5071737;28;20090;-61
2023/01/23 08:07:10;;;;;;;15.43;9.17;;;7.40;1.00;;;;;;5063129;28;20447;-62
2023/01/23 08:09:35;;;;;;;14.50;9.43;;;7.50;1.00;;;;;;5072555;28;20029;-62
2023/01/23 08:12:01;;;;;;;15.73;8.47;;;7.50;1.00;;;;;;5074661;28;20082;-64
2023/01/23 08:14:26;;;;;;;12.97;8.97;;;7.60;1.00;;;;;;5075176;28;20016;-63
2023/01/23 08:16:53;;;;;;;15.87;10.20;;;7.50;1.00;;;;;;5074135;28;20028;-62
2023/01/23 08:19:19;;;;;;;14.97;9.80;;;7.30;1.00;;;;;;5074075;28;20073;-50
2023/01/23 08:21:46;;;;;;;13.87;9.87;;;7.40;1.00;;;;;;5066932;28;20040;-60
2023/01/23 08:24:11;;;;;;;10.97;8.77;;;7.30;1.00;;;;;;5070562;28;20012;-59
2023/01/23 08:26:38;;;;;;;11.93;9.60;;;7.30;1.00;;;;;;5063347;28;20040;-59
2023/01/23 08:29:04;;;;;;;10.93;8.50;;;7.30;1.00;;;;;;5070285;28;20032;-61
2023/01/23 08:31:29;;;;;;;12.87;9.00;;;7.20;1.00;;;;;;5068561;28;20432;-59
2023/01/23 08:33:56;;;;;;;14.13;8.90;;;7.10;1.00;;;;;;5070309;28;20037;-58
2023/01/23 08:36:22;;;;;;;13.53;8.83;;;7.30;1.00;;;;;;5066612;28;20032;-59
2023/01/23 08:38:47;;;;;;;13.70;9.27;;;7.40;1.00;;;;;;5074825;28;20021;-59
2023/01/23 08:41:14;;;;;;;14.47;9.03;;;7.50;1.00;;;;;;5074754;28;20530;-61
2023/01/23 08:43:40;;;;;;;14.17;8.57;;;7.60;1.00;;;;;;5074848;28;20016;-60
2023/01/23 08:46:07;;;;;;;13.97;9.17;;;7.50;1.00;;;;;;5074761;28;20029;-63
2023/01/23 08:48:34;;;;;;;13.17;8.43;;;7.60;1.00;;;;;;5074810;28;20032;-62
2023/01/23 08:51:02;;;;;;;13.73;9.03;;;7.60;1.00;;;;;;5074772;28;20025;-60
2023/01/23 08:53:28;;;;;;;14.53;9.93;;;7.70;1.00;;;;;;5061204;28;20024;-63
2023/01/23 08:56:01;;;;;;;12.27;9.07;;;7.80;1.00;;;;;;5073297;28;20500;-62
2023/01/23 08:58:27;;;;;;;15.20;9.63;;;7.80;1.00;;;;;;5074999;28;20020;-65
2023/01/23 09:00:53;;;;;;;16.90;9.13;;;7.90;1.00;;;;;;5074538;28;20021;-60
2023/01/23 09:03:19;;;;;;;19.43;9.40;;;7.90;1.00;;;;;;5074656;28;20025;-61
2023/01/23 09:05:45;;;;;;;14.60;9.23;;;7.80;1.00;;;;;;5074209;28;20529;-61
2023/01/23 09:08:10;;;;;;;14.57;8.97;;;7.80;1.00;;;;;;5074355;28;20028;-65
2023/01/23 09:10:36;;;;;;;14.80;9.37;;;7.50;1.00;;;;;;5074251;28;20035;-61
2023/01/23 09:13:02;;;;;;;14.00;9.60;;;7.50;1.00;;;;;;5074468;28;20024;-62
2023/01/23 09:15:28;;;;;;;16.03;9.60;;;7.50;1.00;;;;;;5074701;28;20017;-64
2023/01/23 09:17:54;;;;;;;18.97;9.87;;;7.40;1.00;;;;;;5073649;28;20032;-57
2023/01/23 09:20:19;;;;;;;21.13;11.40;;;7.60;1.00;;;;;;5072941;28;20012;-65
2023/01/23 09:22:45;;;;;;;19.47;9.67;;;7.50;1.00;;;;;;5074270;28;20115;-59
2023/01/23 09:25:11;;;;;;;17.23;10.97;;;7.50;1.00;;;;;;5074016;28;20023;-59
2023/01/23 09:27:37;;;;;;;20.13;10.37;;;7.50;1.00;;;;;;5072710;28;20033;-58
2023/01/23 09:30:03;;;;;;;12.70;9.50;;;7.60;1.00;;;;;;5073729;28;20078;-58
2023/01/23 09:32:41;;;;;;;15.60;9.43;;;7.60;1.00;;;;;;5074210;28;20198;-59
2023/01/23 09:35:07;;;;;;;14.17;9.20;;;7.80;1.00;;;;;;5072523;28;20107;-61
2023/01/23 09:40:21;;;;;;;11.07;8.73;;;7.70;1.00;;;;;;5073924;28;20043;-59
2023/01/23 09:42:47;;;;;;;10.53;9.00;;;7.70;1.00;;;;;;5073793;28;20013;-59
2023/01/23 09:45:18;;;;;;;18.03;8.83;;;7.80;1.00;;;;;;5073482;28;20474;-60
2023/01/23 09:48:09;;;;;;;13.70;9.83;;;7.70;1.00;;;;;;5073469;28;20029;-57
2023/01/23 09:50:50;;;;;;;11.27;9.73;;;7.70;1.00;;;;;;5073352;28;20063;-61
2023/01/23 09:53:20;;;;;;;13.00;9.97;;;7.90;1.00;;;;;;5073830;28;20020;-59
2023/01/23 09:55:57;;;;;;;18.67;11.20;;;7.80;1.00;;;;;;5069224;28;20124;-59
2023/01/23 09:58:40;;;;;;;16.17;10.83;;;7.80;1.00;;;;;;5070427;28;20064;-60
2023/01/23 10:01:11;;;;;;;18.57;10.50;;;7.80;1.00;;;;;;5073073;28;20482;-63
2023/01/23 10:03:37;;;;;;;15.33;10.67;;;7.60;1.00;;;;;;5072174;28;20039;-60
2023/01/23 10:06:30;;;;;;;12.93;10.77;;;7.50;1.00;;;;;;5073477;28;20036;-60
2023/01/23 10:08:59;;;;;;;13.57;11.03;;;7.50;1.00;;;;;;5069309;28;20064;-67
2023/01/23 10:12:11;;;;;;;16.17;10.60;;;7.80;1.00;;;;;;5074530;28;20032;-69
2023/01/23 10:15:16;;;;;;;14.47;10.33;;;8.00;1.00;;;;;;5040957;28;20039;-65
2023/01/23 10:18:13;;;;;;;13.00;10.20;;;8.00;1.00;;;;;;5072417;28;20381;-63
2023/01/23 10:21:06;;;;;;;12.90;10.47;;;7.90;1.00;;;;;;5073314;28;20024;-63
2023/01/23 10:23:55;;;;;;;14.33;10.73;;;8.00;1.00;;;;;;5063515;28;20031;-72
2023/01/23 10:26:25;;;;;;;15.27;9.73;;;7.90;1.00;;;;;;5072290;28;20040;-53
2023/01/23 10:28:56;;;;;;;14.83;10.57;;;8.00;1.00;;;;;;5072681;28;20056;-53
2023/01/23 10:31:42;;;;;;;17.90;10.80;;;8.00;1.00;;;;;;5072675;28;20496;-52
2023/01/23 10:34:08;;;;;;;13.27;10.17;;;8.10;1.00;;;;;;5073125;28;20029;-55
2023/01/23 10:37:05;;;;;;;12.60;10.27;;;7.90;1.00;;;;;;5072793;28;20492;-52
2023/01/23 10:39:42;;;;;;;14.70;10.37;;;8.10;1.00;;;;;;5072053;28;20124;-59
2023/01/23 10:42:12;;;;;;;14.37;9.90;;;8.10;1.00;;;;;;5072596;28;20044;-60
2023/01/23 10:44:38;;;;;;;15.77;10.30;;;8.10;1.00;;;;;;5072274;28;20543;-60
2023/01/23 10:47:16;;;;;;;14.37;10.87;;;8.10;1.00;;;;;;5070994;28;20033;-59
2023/01/23 10:49:44;;;;;;;15.73;10.40;;;8.10;1.00;;;;;;5072281;28;20028;-61
2023/01/23 10:52:36;;;;;;;15.20;10.33;;;8.20;1.00;;;;;;5072271;28;20141;-57
2023/01/23 10:55:18;;;;;;;16.40;10.23;;;8.30;1.00;;;;;;5072274;28;20025;-59
2023/01/23 10:57:47;;;;;;;19.80;10.97;;;8.30;1.00;;;;;;5072063;28;20121;-59
2023/01/23 11:00:28;;;;;;;17.60;11.17;;;8.20;1.00;;;;;;5072029;28;20107;-67
2023/01/23 11:02:54;;;;;;;14.53;10.33;;;8.20;1.00;;;;;;5072438;28;20016;-63
2023/01/23 11:05:42;;;;;;;18.77;11.13;;;8.20;1.00;;;;;;5070604;28;20115;-59
2023/01/23 11:09:03;;;;;;;16.67;11.37;;;8.30;1.00;;;;;;5072182;28;20082;-60
2023/01/23 11:11:31;;;;;;;15.60;10.50;;;8.10;1.00;;;;;;5038690;28;20481;-61
2023/01/23 11:14:20;;;;;;;16.20;11.23;;;8.30;1.00;;;;;;5071928;28;20024;-59
2023/01/23 11:16:58;;;;;;;19.37;11.60;;;8.30;1.00;;;;;;5072026;28;20020;-59
2023/01/23 11:19:25;;;;;;;13.10;10.47;;;8.40;1.00;;;;;;5062083;28;20036;-63
2023/01/23 11:21:56;;;;;;;15.90;11.30;;;8.50;1.00;;;;;;5071916;28;20038;-61
2023/01/23 11:24:33;;;;;;;17.60;11.13;;;8.50;1.00;;;;;;5071819;28;20504;-60
2023/01/23 11:27:14;;;;;;;14.23;11.33;;;8.60;1.00;;;;;;5071449;28;20033;-65
2023/01/23 11:29:53;;;;;;;14.87;11.63;;;8.60;1.00;;;;;;5058337;28;20048;-63
2023/01/23 11:32:20;;;;;;;17.80;12.50;;;8.60;1.00;;;;;;5072162;28;20056;-63
2023/01/23 11:34:52;;;;;;;16.67;11.40;;;8.60;1.00;;;;;;5071678;28;20021;-63
2023/01/23 11:37:27;;;;;;;17.60;10.70;;;8.60;1.00;;;;;;5071500;28;20017;-61
2023/01/23 11:40:06;;;;;;;17.63;11.17;;;8.60;1.00;;;;;;5071603;28;20104;-63
2023/01/23 11:42:33;;;;;;;14.97;10.53;;;8.70;1.00;;;;;;5061696;28;20111;-62
2023/01/23 11:44:59;;;;;;;13.73;10.30;;;8.80;1.00;;;;;;5075870;28;20055;-60
2023/01/23 11:48:09;;;;;;;15.63;10.73;;;8.70;1.00;;;;;;5075463;28;20032;-60
2023/01/23 11:50:43;;;;;;;16.00;10.83;;;8.70;1.00;;;;;;5038541;28;20562;-60
2023/01/23 11:53:18;;;;;;;15.13;10.13;;;8.70;1.00;;;;;;5075716;28;20063;-59
2023/01/23 11:56:29;;;;;;;14.90;10.50;;;8.60;1.00;;;;;;5075614;28;20058;-60
2023/01/23 12:00:00;;;;;;;16.73;11.57;;;8.60;1.00;;;;;;5059358;28;20040;-60
2023/01/23 12:02:26;;;;;;;14.47;9.67;;;8.70;1.00;;;;;;5036485;28;20058;-62
2023/01/23 12:05:26;;;;;;;16.40;10.10;;;8.70;1.00;;;;;;5073833;28;20413;-62
2023/01/23 12:08:35;;;;;;;13.80;9.93;;;8.70;1.00;;;;;;5079313;28;20044;-62
2023/01/23 12:11:15;;;;;;;16.87;10.47;;;8.70;1.00;;;;;;5062486;28;20025;-63
2023/01/23 12:13:59;;;;;;;21.37;11.50;;;8.70;1.00;;;;;;5075202;28;20027;-63
2023/01/23 12:16:28;;;;;;;13.23;9.50;;;8.70;1.00;;;;;;5075178;28;20032;-63
2023/01/23 12:19:08;;;;;;;14.83;11.40;;;8.70;1.00;;;;;;5074918;28;20470;-63
2023/01/23 12:22:10;;;;;;;13.57;11.57;;;8.70;1.00;;;;;;5075216;28;20025;-63
2023/01/23 12:24:50;;;;;;;18.60;12.77;;;8.70;1.00;;;;;;5062344;28;20029;-63
2023/01/23 12:27:45;;;;;;;19.67;12.17;;;8.70;1.00;;;;;;5073542;28;20346;-63
2023/01/23 12:30:26;;;;;;;22.45;14.38;;;8.70;1.00;;;;;;5066393;28;20032;-63
2023/01/23 12:33:00;;;;;;;14.13;11.13;;;8.50;1.00;;;;;;5075040;28;20062;-63
2023/01/23 12:35:49;;;;;;;16.40;11.93;;;8.60;1.00;;;;;;5074898;28;20040;-63
2023/01/23 12:38:35;;;;;;;18.83;12.50;;;8.50;1.00;;;;;;5062618;28;20547;-63
2023/01/23 12:41:27;;;;;;;20.23;12.67;;;8.60;1.00;;;;;;5073447;28;20425;-63
2023/01/23 12:44:05;;;;;;;19.50;13.17;;;8.70;1.00;;;;;;5069199;28;20028;-63
2023/01/23 12:46:42;;;;;;;22.63;14.53;;;8.60;1.00;;;;;;5074576;28;22003;-63
2023/01/23 12:49:25;;;;;;;19.70;13.60;;;8.70;1.00;;;;;;5074928;28;20021;-63
2023/01/23 12:52:16;;;;;;;20.53;14.50;;;8.50;1.00;;;;;;5073889;28;20347;-64
2023/01/23 12:54:52;;;;;;;18.33;14.17;;;8.30;1.00;;;;;;5053756;28;20410;-64
2023/01/23 12:57:38;;;;;;;22.73;15.07;;;8.50;1.00;;;;;;5072987;28;20477;-63
2023/01/23 13:00:19;;;;;;;21.30;15.87;;;8.60;1.00;;;;;;5074517;28;20028;-64
2023/01/23 13:02:51;;;;;;;18.33;15.07;;;8.50;1.00;;;;;;5074524;28;20036;-64
2023/01/23 13:05:30;;;;;;;19.87;15.63;;;8.70;1.00;;;;;;5074633;28;20048;-63
2023/01/23 13:08:17;;;;;;;21.30;15.13;;;8.60;1.00;;;;;;5074359;28;20041;-64
2023/01/23 13:13:43;;;;;;;20.60;15.63;;;8.50;1.00;;;;;;5074142;28;20043;-49
2023/01/23 13:16:14;;;;;;;19.73;15.63;;;8.50;1.00;;;;;;5074243;28;20020;-49
2023/01/23 13:27:40;;;;;;;27.20;15.80;;;8.20;1.00;;;;;;5073500;28;20047;-50
2023/01/23 13:30:24;;;;;;;23.10;15.38;;;8.30;1.00;;;;;;5073781;28;20107;-51
2023/01/23 13:32:59;;;;;;;20.85;16.35;;;8.30;1.00;;;;;;5073630;28;20020;-49